Página principal
METAR-TAF:

METAR-TAF

Aeroportos :

Rabat, Marrocos

latitude: 34-03N, longitude: 006-46W, altura: 84 m

Observação actual do tempo

O boletim foi feito há 26 minutos, às 19:00 UTC
Vento calmo
Temperatura 15°C
Humidade 82%
Pressão 1026 hPa
Visibilidade: 5000 m

METAR: GMME 221900Z 00000KT 5000 NSC 15/12 Q1026 NOSIG

Hora: 19:26 (19:26 UTC)

Previsão

O boletim foi feito há 2 horas e 26 minutos, às 17:00 UTC
Previsão válida de 22 às 18 UTC a 23 às 24 UTC
Vento 4 kt de sul
Visibilidade: 5000 m
Nuvens dispersasa uma altura de 1600 ft
Nuvens dispersasa uma altura de 20000 ft
Tornando-se
de 23 às 10 UTC a 23 às 12 UTC
Vento 10 kt de noroeste
Tornando-se
de 23 às 18 UTC a 23 às 20 UTC
Vento 2 kt com direcção variável

TAF: GMME 221700Z 2218/2324 18004KT 5000 SCT016 SCT200 BECMG 2310/2312 32010KT BECMG 2318/2320 VRB02KT

Observações e previsões do tempo de mais de 4000 aeroportos (mensagens METAR e TAF).

As estações disponíveis são os pontos amarelos e vermelhos sobre o mapa.

Mova o rato sobre o mapa para ver o nome da estação.

Depois clique no ponto para visualizar as observações e previsões meteorológicas.

Para alterar o mapa : clique nos botões verdes com uma cruz preta para aumentar o zoom; no botão verde com uma pitada de zoom; ou nas setas verdes para mapas adjacentes.


METAR-TAF: